createdAt,value
2018-10-11T00:00:57.053Z,30.00
2018-10-11T00:01:57.040Z,28.20
2018-10-11T00:02:57.032Z,29.20
2018-10-11T00:03:57.032Z,28.40
2018-10-11T00:04:57.017Z,29.20
2018-10-11T00:05:57.000Z,28.10
2018-10-11T00:06:56.987Z,27.80
2018-10-11T00:07:56.976Z,27.00
2018-10-11T00:08:56.963Z,27.70
2018-10-11T00:09:56.975Z,27.90
2018-10-11T00:10:56.949Z,27.60
2018-10-11T00:11:56.939Z,27.20
2018-10-11T00:12:56.921Z,27.50
2018-10-11T00:13:56.916Z,27.90
2018-10-11T00:14:56.908Z,28.40
2018-10-11T00:15:56.886Z,28.80
2018-10-11T00:16:56.876Z,27.40
2018-10-11T00:17:56.869Z,28.60
2018-10-11T00:18:56.852Z,28.40
2018-10-11T00:19:56.866Z,28.10
2018-10-11T00:20:56.833Z,28.10
2018-10-11T00:21:56.821Z,27.90
2018-10-11T00:22:56.809Z,29.80
2018-10-11T00:23:56.798Z,28.30
2018-10-11T00:24:56.789Z,27.80
2018-10-11T00:25:56.786Z,28.10
2018-10-11T00:26:56.774Z,28.20
2018-10-11T00:27:56.753Z,28.50
2018-10-11T00:28:56.741Z,27.50
2018-10-11T00:29:56.730Z,27.90
2018-10-11T00:30:56.731Z,28.40
2018-10-11T00:31:56.707Z,28.60
2018-10-11T00:32:56.699Z,28.20
2018-10-11T00:33:56.685Z,29.00
2018-10-11T00:34:56.675Z,27.90
2018-10-11T00:35:56.678Z,28.80
2018-10-11T00:36:56.656Z,28.90
2018-10-11T00:37:56.644Z,27.90
2018-10-11T00:38:56.637Z,28.20
2018-10-11T00:39:56.618Z,28.40
2018-10-11T00:40:56.616Z,28.00
2018-10-11T00:41:56.597Z,27.90
2018-10-11T00:42:56.587Z,28.80
2018-10-11T00:43:56.582Z,28.20
2018-10-11T00:44:56.565Z,28.00
2018-10-11T00:45:56.561Z,28.70
2018-10-11T00:46:56.545Z,29.20
2018-10-11T00:47:56.533Z,28.60
2018-10-11T00:48:56.520Z,27.70
2018-10-11T00:49:56.511Z,28.30
2018-10-11T00:50:56.509Z,28.50
2018-10-11T00:51:56.489Z,29.10
2018-10-11T00:52:56.485Z,29.30
2018-10-11T00:53:56.467Z,28.50
2018-10-11T00:54:56.457Z,29.10
2018-10-11T00:55:56.457Z,28.40
2018-10-11T00:56:56.430Z,28.80
2018-10-11T00:57:56.417Z,27.80
2018-10-11T00:58:56.406Z,28.50
2018-10-11T00:59:56.395Z,28.20
2018-10-11T01:00:56.398Z,29.10
2018-10-11T01:01:56.374Z,28.60
2018-10-11T01:02:56.363Z,28.60
2018-10-11T01:03:56.363Z,29.10
2018-10-11T01:04:56.340Z,28.80
2018-10-11T01:05:56.344Z,29.50
2018-10-11T01:06:56.319Z,29.40
2018-10-11T01:07:56.310Z,29.30
2018-10-11T01:08:56.302Z,28.60
2018-10-11T01:09:56.357Z,28.40
2018-10-11T01:10:56.277Z,28.30
2018-10-11T01:11:56.270Z,28.20
2018-10-11T01:12:56.253Z,28.90
2018-10-11T01:13:56.242Z,30.10
2018-10-11T01:14:56.243Z,29.20
2018-10-11T01:15:56.238Z,28.70
2018-10-11T01:16:56.234Z,28.60
2018-10-11T01:17:56.198Z,30.70
2018-10-11T01:18:56.183Z,29.00
2018-10-11T01:19:56.173Z,28.80
2018-10-11T01:20:56.164Z,29.20
2018-10-11T01:21:56.164Z,28.50
2018-10-11T01:22:56.137Z,29.70
2018-10-11T01:23:56.256Z,28.70
2018-10-11T01:24:56.119Z,28.40
2018-10-11T01:25:56.105Z,29.00
2018-10-11T01:26:56.114Z,28.40
2018-10-11T01:27:56.111Z,28.50
2018-10-11T01:28:56.072Z,28.90
2018-10-11T01:29:56.104Z,29.30
2018-10-11T01:30:56.057Z,29.50
2018-10-11T01:31:56.443Z,28.20
2018-10-11T01:32:56.048Z,29.00
2018-10-11T01:33:56.048Z,28.80
2018-10-11T01:34:56.007Z,28.40
2018-10-11T01:35:56.006Z,29.10
2018-10-11T01:36:55.994Z,29.00
2018-10-11T01:37:55.978Z,29.80
2018-10-11T01:38:55.976Z,28.40
2018-10-11T01:39:55.952Z,29.20
2018-10-11T01:40:55.938Z,29.60
2018-10-11T01:41:55.942Z,28.70
2018-10-11T01:42:55.918Z,28.30
2018-10-11T01:43:55.909Z,27.90
2018-10-11T01:44:55.908Z,28.30
2018-10-11T01:45:55.882Z,29.40
2018-10-11T01:46:55.887Z,28.30
2018-10-11T01:47:55.861Z,30.10
2018-10-11T01:48:55.852Z,29.20
2018-10-11T01:49:55.839Z,29.10
2018-10-11T01:50:55.843Z,28.50
2018-10-11T01:51:55.834Z,27.70
2018-10-11T01:52:55.809Z,27.70
2018-10-11T01:53:55.797Z,28.60
2018-10-11T01:54:55.783Z,32.00
2018-10-11T01:55:55.778Z,28.50
2018-10-11T01:56:55.775Z,28.50
2018-10-11T01:57:55.751Z,28.90
2018-10-11T01:58:55.737Z,28.30
2018-10-11T01:59:55.730Z,27.90
2018-10-11T02:00:55.722Z,29.60
2018-10-11T02:01:55.714Z,29.00
2018-10-11T02:02:55.708Z,30.10
2018-10-11T02:03:55.683Z,28.20
2018-10-11T02:04:55.674Z,28.70
2018-10-11T02:05:55.660Z,29.00
2018-10-11T02:06:55.666Z,30.70
2018-10-11T02:07:55.641Z,28.90
2018-10-11T02:08:55.635Z,30.30
2018-10-11T02:09:55.622Z,28.80
2018-10-11T02:10:55.604Z,28.60
2018-10-11T02:11:55.604Z,28.30
2018-10-11T02:12:55.582Z,28.20
2018-10-11T02:13:55.575Z,30.50
2018-10-11T02:14:55.573Z,29.60
2018-10-11T02:15:55.556Z,29.00
2018-10-11T02:16:55.540Z,30.10
2018-10-11T02:17:55.545Z,30.70
2018-10-11T02:18:55.518Z,28.30
2018-10-11T02:19:55.509Z,29.80
2018-10-11T02:20:55.512Z,30.50
2018-10-11T02:21:55.486Z,31.00
2018-10-11T02:22:55.487Z,30.80
2018-10-11T02:23:55.465Z,29.10
2018-10-11T02:24:55.457Z,28.80
2018-10-11T02:25:55.442Z,28.70
2018-10-11T02:26:55.428Z,29.70
2018-10-11T02:27:55.428Z,30.10
2018-10-11T02:28:55.410Z,29.80
2018-10-11T02:29:55.406Z,29.60
2018-10-11T02:30:55.384Z,29.60
2018-10-11T02:31:55.424Z,29.50
2018-10-11T02:32:55.374Z,30.70
2018-10-11T02:33:55.352Z,28.70
2018-10-11T02:34:55.338Z,28.70
2018-10-11T02:35:55.329Z,31.70
2018-10-11T02:36:55.323Z,30.60
2018-10-11T02:37:55.316Z,32.40
2018-10-11T02:38:55.294Z,30.20
2018-10-11T02:39:55.286Z,30.90
2018-10-11T02:40:55.271Z,30.70
2018-10-11T02:41:55.261Z,29.70
2018-10-11T02:42:55.264Z,30.20
2018-10-11T02:43:55.246Z,31.20
2018-10-11T02:44:55.231Z,31.20
2018-10-11T02:45:55.216Z,30.40
2018-10-11T02:46:55.222Z,32.30
2018-10-11T02:47:55.206Z,30.50
2018-10-11T02:48:55.201Z,30.50
2018-10-11T02:49:55.179Z,30.50
2018-10-11T02:50:55.160Z,31.50
2018-10-11T02:51:55.156Z,32.70
2018-10-11T02:52:55.150Z,32.80
2018-10-11T02:53:55.138Z,33.00
2018-10-11T02:54:55.131Z,32.70
2018-10-11T02:55:55.118Z,32.40
2018-10-11T02:56:55.096Z,32.40
2018-10-11T02:57:55.105Z,32.20
2018-10-11T02:58:55.073Z,31.20
2018-10-11T02:59:55.061Z,32.90
2018-10-11T03:00:55.052Z,32.10
2018-10-11T03:01:55.057Z,32.90
2018-10-11T03:02:55.029Z,32.90
2018-10-11T03:03:55.028Z,31.50
2018-10-11T03:04:55.007Z,32.30
2018-10-11T03:05:54.996Z,32.50
2018-10-11T03:06:54.983Z,33.00
2018-10-11T03:07:54.972Z,31.80
2018-10-11T03:08:54.972Z,32.20
2018-10-11T03:09:54.953Z,32.90
2018-10-11T03:10:54.942Z,32.60
2018-10-11T03:11:54.937Z,32.40
2018-10-11T03:12:54.917Z,34.90
2018-10-11T03:13:54.921Z,31.80
2018-10-11T03:14:54.895Z,32.20
2018-10-11T03:15:54.887Z,33.20
2018-10-11T03:16:54.873Z,33.30
2018-10-11T03:17:54.861Z,32.60
2018-10-11T03:18:54.860Z,34.20
2018-10-11T03:19:54.841Z,32.20
2018-10-11T03:20:54.829Z,33.70
2018-10-11T03:21:54.821Z,33.30
2018-10-11T03:22:54.806Z,33.50
2018-10-11T03:23:54.810Z,33.20
2018-10-11T03:24:54.785Z,34.30
2018-10-11T03:25:54.771Z,32.90
2018-10-11T03:26:54.768Z,32.90
2018-10-11T03:27:54.752Z,32.60
2018-10-11T03:28:54.747Z,33.80
2018-10-11T03:29:54.728Z,34.60
2018-10-11T03:30:54.718Z,32.80
2018-10-11T03:31:54.707Z,32.70
2018-10-11T03:32:54.704Z,35.10
2018-10-11T03:33:54.692Z,35.70
2018-10-11T03:34:54.673Z,33.00
2018-10-11T03:35:54.669Z,33.10
2018-10-11T03:36:54.653Z,33.80
2018-10-11T03:37:54.638Z,32.10
2018-10-11T03:38:54.641Z,32.70
2018-10-11T03:39:54.618Z,32.00
2018-10-11T03:40:54.604Z,32.50
2018-10-11T03:41:54.595Z,33.30
2018-10-11T03:42:54.596Z,32.30
2018-10-11T03:43:54.571Z,33.30
2018-10-11T03:44:54.571Z,32.40
2018-10-11T03:45:54.547Z,32.50
2018-10-11T03:46:54.536Z,32.60
2018-10-11T03:47:54.533Z,33.20
2018-10-11T03:48:54.528Z,33.80
2018-10-11T03:49:54.516Z,32.60
2018-10-11T03:50:54.497Z,32.60
2018-10-11T03:51:54.480Z,32.70
2018-10-11T03:52:54.470Z,33.00
2018-10-11T03:53:54.457Z,32.10
2018-10-11T03:54:54.474Z,33.80
2018-10-11T03:55:54.453Z,34.00
2018-10-11T03:56:54.438Z,33.70
2018-10-11T03:57:54.414Z,33.40
2018-10-11T03:58:54.418Z,33.10
2018-10-11T03:59:54.398Z,33.10
2018-10-11T04:00:54.381Z,33.60
2018-10-11T04:01:54.396Z,34.90
2018-10-11T04:02:54.355Z,32.90
2018-10-11T04:03:54.345Z,33.20
2018-10-11T04:04:54.356Z,33.90
2018-10-11T04:05:54.339Z,36.00
2018-10-11T04:06:54.310Z,35.00
2018-10-11T04:07:54.323Z,34.30
2018-10-11T04:08:54.288Z,32.30
2018-10-11T04:09:54.291Z,36.10
2018-10-11T04:10:54.268Z,35.00
2018-10-11T04:11:54.253Z,33.30
2018-10-11T04:12:54.253Z,33.50
2018-10-11T04:13:54.246Z,33.30
2018-10-11T04:14:54.230Z,33.90
2018-10-11T04:15:54.208Z,35.20
2018-10-11T04:16:54.198Z,33.00
2018-10-11T04:17:54.188Z,34.00
2018-10-11T04:18:54.182Z,36.60
2018-10-11T04:19:54.182Z,35.40
2018-10-11T04:20:54.153Z,35.80
2018-10-11T04:21:54.144Z,35.30
2018-10-11T04:22:54.129Z,38.30
2018-10-11T04:23:54.143Z,37.40
2018-10-11T04:24:54.124Z,39.00
2018-10-11T04:25:54.097Z,41.40
2018-10-11T04:26:54.090Z,43.10
2018-10-11T04:27:54.073Z,41.40
2018-10-11T04:28:54.072Z,43.20
2018-10-11T04:29:54.073Z,42.40
2018-10-11T04:30:54.060Z,42.40
2018-10-11T04:31:54.032Z,42.90
2018-10-11T04:32:54.019Z,45.30
2018-10-11T04:33:54.007Z,44.80
2018-10-11T04:34:54.015Z,46.30
2018-10-11T04:35:53.993Z,45.50
2018-10-11T04:36:53.971Z,47.60
2018-10-11T04:37:53.961Z,47.00
2018-10-11T04:38:53.949Z,48.30
2018-10-11T04:39:53.940Z,47.90
2018-10-11T04:40:53.938Z,47.00
2018-10-11T04:41:53.924Z,47.80
2018-10-11T04:42:53.997Z,52.00
2018-10-11T04:43:53.893Z,52.20
2018-10-11T04:44:53.881Z,52.70
2018-10-11T04:45:53.896Z,58.60
2018-10-11T04:46:53.859Z,56.20
2018-10-11T04:47:53.865Z,56.90
2018-10-11T04:48:53.837Z,55.90
2018-10-11T04:49:53.829Z,57.30
2018-10-11T04:50:53.831Z,55.70
2018-10-11T04:51:53.808Z,58.50
2018-10-11T04:52:53.796Z,56.10
2018-10-11T04:53:53.788Z,56.10
2018-10-11T04:54:53.776Z,53.30
2018-10-11T04:55:53.774Z,56.80
2018-10-11T04:56:53.753Z,55.50
2018-10-11T04:57:53.747Z,57.70
2018-10-11T04:58:53.744Z,53.10
2018-10-11T04:59:53.789Z,53.40
2018-10-11T05:00:53.714Z,54.90
2018-10-11T05:01:53.692Z,56.60
2018-10-11T05:02:53.686Z,53.00
2018-10-11T05:03:53.670Z,53.40
2018-10-11T05:04:53.677Z,51.10
2018-10-11T05:05:53.661Z,51.00
2018-10-11T05:06:53.638Z,54.30
2018-10-11T05:07:53.633Z,55.30
2018-10-11T05:08:53.617Z,54.60
2018-10-11T05:09:53.606Z,52.80
2018-10-11T05:10:53.627Z,53.90
2018-10-11T05:11:53.586Z,54.70
2018-10-11T05:12:53.575Z,53.70
2018-10-11T05:13:53.564Z,54.90
2018-10-11T05:14:53.552Z,56.40
2018-10-11T05:15:53.554Z,53.40
2018-10-11T05:16:53.528Z,52.20
2018-10-11T05:17:53.519Z,53.20
2018-10-11T05:18:53.508Z,52.50
2018-10-11T05:19:53.500Z,53.90
2018-10-11T05:20:53.496Z,51.10
2018-10-11T05:21:53.489Z,54.50
2018-10-11T05:22:53.463Z,48.80
2018-10-11T05:23:53.451Z,50.30
2018-10-11T05:24:53.441Z,51.10
2018-10-11T05:25:53.469Z,58.00
2018-10-11T05:26:53.432Z,52.50
2018-10-11T05:27:53.417Z,53.20
2018-10-11T05:28:53.403Z,52.00
2018-10-11T05:29:53.389Z,53.10
2018-10-11T05:30:53.376Z,50.00
2018-10-11T05:31:53.382Z,50.30
2018-10-11T05:32:53.357Z,50.30
2018-10-11T05:33:53.368Z,49.00
2018-10-11T05:34:53.337Z,49.50
2018-10-11T05:35:53.323Z,51.50
2018-10-11T05:36:53.321Z,50.30
2018-10-11T05:37:53.301Z,52.80
2018-10-11T05:38:53.295Z,52.50
2018-10-11T05:39:53.298Z,53.60
2018-10-11T05:40:53.269Z,52.00
2018-10-11T05:41:53.271Z,49.10
2018-10-11T05:42:53.246Z,50.90
2018-10-11T05:43:53.241Z,56.50
2018-10-11T05:44:53.237Z,51.10
2018-10-11T05:45:53.220Z,53.00
2018-10-11T05:46:53.214Z,51.30
2018-10-11T05:47:53.195Z,53.20
2018-10-11T05:48:53.181Z,52.20
2018-10-11T05:49:53.169Z,50.20
2018-10-11T05:50:53.165Z,50.20
2018-10-11T05:51:53.231Z,47.50
2018-10-11T05:52:53.138Z,47.60
2018-10-11T05:53:53.135Z,53.10
2018-10-11T05:54:53.117Z,49.60
2018-10-11T05:55:53.107Z,48.60
2018-10-11T05:56:53.100Z,51.10
2018-10-11T05:57:53.096Z,50.90
2018-10-11T05:58:53.076Z,49.60
2018-10-11T05:59:53.062Z,52.50
2018-10-11T06:00:53.057Z,48.80
2018-10-11T06:01:53.044Z,48.70
2018-10-11T06:02:53.049Z,49.90
2018-10-11T06:03:53.023Z,47.20
2018-10-11T06:04:53.010Z,49.20
2018-10-11T06:05:52.995Z,50.60
2018-10-11T06:06:52.987Z,50.80
2018-10-11T06:07:52.984Z,49.80
2018-10-11T06:08:52.961Z,50.60
2018-10-11T06:09:52.953Z,52.00
2018-10-11T06:10:52.941Z,53.00
2018-10-11T06:11:52.951Z,55.50
2018-10-11T06:12:52.930Z,54.80
2018-10-11T06:13:52.918Z,59.00
2018-10-11T06:14:52.904Z,59.50
2018-10-11T06:15:52.886Z,64.90
2018-10-11T06:16:52.876Z,72.80
2018-10-11T06:17:52.978Z,71.30
2018-10-11T06:18:52.859Z,79.60
2018-10-11T06:19:52.853Z,88.80
2018-10-11T06:20:52.844Z,87.10
2018-10-11T06:21:52.821Z,82.50
2018-10-11T06:22:52.820Z,86.00
2018-10-11T06:23:52.798Z,81.10
2018-10-11T06:24:52.919Z,76.50
2018-10-11T06:25:52.787Z,78.50
2018-10-11T06:26:52.766Z,74.10
2018-10-11T06:27:52.777Z,71.50
2018-10-11T06:28:52.743Z,68.60
2018-10-11T06:29:52.729Z,67.50
2018-10-11T06:30:52.733Z,66.30
2018-10-11T06:31:52.708Z,65.50
2018-10-11T06:32:52.704Z,61.70
2018-10-11T06:33:52.684Z,55.00
2018-10-11T06:34:52.672Z,55.50
2018-10-11T06:35:52.677Z,49.10
2018-10-11T06:36:52.661Z,46.30
2018-10-11T06:37:52.650Z,46.60
2018-10-11T06:38:52.645Z,48.60
2018-10-11T06:39:52.616Z,46.20
2018-10-11T06:40:52.613Z,46.30
2018-10-11T06:41:52.683Z,43.50
2018-10-11T06:42:52.636Z,40.60
2018-10-11T06:43:52.576Z,41.80
2018-10-11T06:44:52.556Z,43.30
2018-10-11T06:45:52.549Z,40.70
2018-10-11T06:46:52.538Z,40.70
2018-10-11T06:47:52.535Z,39.30
2018-10-11T06:48:52.513Z,38.70
2018-10-11T06:49:52.599Z,40.60
2018-10-11T06:50:52.495Z,39.50
2018-10-11T06:51:52.627Z,41.10
2018-10-11T06:52:52.479Z,38.80
2018-10-11T06:53:52.471Z,40.30
2018-10-11T06:54:52.449Z,37.40
2018-10-11T06:55:52.496Z,37.30
2018-10-11T06:56:52.424Z,38.00
2018-10-11T06:57:52.426Z,36.50
2018-10-11T06:58:52.403Z,38.30
2018-10-11T06:59:52.390Z,38.70
2018-10-11T07:00:52.386Z,35.50
2018-10-11T07:01:52.472Z,36.60
2018-10-11T07:02:52.364Z,35.40
2018-10-11T07:03:52.364Z,36.10
2018-10-11T07:04:52.355Z,36.00
2018-10-11T07:05:52.325Z,40.60
2018-10-11T07:06:52.314Z,37.40
2018-10-11T07:07:52.319Z,35.00
2018-10-11T07:08:52.288Z,37.00
2018-10-11T07:09:52.284Z,35.10
2018-10-11T07:10:52.283Z,35.60
2018-10-11T07:11:52.262Z,35.40
2018-10-11T07:12:52.258Z,37.00
2018-10-11T07:13:52.284Z,35.00
2018-10-11T07:14:52.224Z,35.90
2018-10-11T07:15:52.209Z,35.50
2018-10-11T07:16:52.197Z,35.70
2018-10-11T07:17:52.194Z,35.40
2018-10-11T07:18:52.190Z,36.60
2018-10-11T07:19:52.165Z,35.20
2018-10-11T07:20:52.166Z,35.90
2018-10-11T07:21:52.152Z,35.50
2018-10-11T07:22:52.129Z,36.00
2018-10-11T07:23:52.133Z,41.40
2018-10-11T07:24:52.123Z,36.70
2018-10-11T07:25:52.149Z,38.90
2018-10-11T07:26:52.089Z,38.10
2018-10-11T07:27:52.090Z,39.00
2018-10-11T07:28:52.077Z,40.00
2018-10-11T07:29:52.064Z,42.80
2018-10-11T07:30:52.043Z,42.50
2018-10-11T07:31:52.029Z,43.30
2018-10-11T07:32:52.021Z,46.70
2018-10-11T07:33:52.031Z,46.00
2018-10-11T07:34:52.078Z,45.40
2018-10-11T07:35:51.989Z,46.60
2018-10-11T07:36:51.973Z,49.30
2018-10-11T07:37:51.968Z,44.20
2018-10-11T07:38:51.960Z,47.40
2018-10-11T07:39:51.940Z,47.80
2018-10-11T07:40:51.941Z,48.90
2018-10-11T07:41:51.938Z,49.90
2018-10-11T07:42:51.933Z,52.20
2018-10-11T07:43:51.990Z,51.50
2018-10-11T07:44:51.900Z,51.20
2018-10-11T07:45:51.874Z,54.20
2018-10-11T07:46:51.861Z,56.90
2018-10-11T07:47:51.867Z,60.30
2018-10-11T07:48:51.862Z,61.50
2018-10-11T07:49:51.831Z,60.20
2018-10-11T07:50:51.829Z,59.80
2018-10-11T07:51:51.835Z,63.30
2018-10-11T07:52:51.867Z,59.50
2018-10-11T07:53:51.799Z,60.50
2018-10-11T07:54:51.773Z,56.70
2018-10-11T07:55:51.766Z,59.50
2018-10-11T07:56:51.754Z,57.40
2018-10-11T07:57:51.744Z,61.60
2018-10-11T07:58:51.744Z,58.50
2018-10-11T07:59:51.729Z,58.70
2018-10-11T08:00:51.709Z,55.90
2018-10-11T08:01:51.880Z,54.60
2018-10-11T08:02:51.686Z,55.80
2018-10-11T08:03:51.683Z,55.80
2018-10-11T08:04:51.666Z,59.10
2018-10-11T08:05:51.660Z,58.70
2018-10-11T08:06:51.641Z,56.00
2018-10-11T08:07:51.639Z,55.60
2018-10-11T08:08:51.677Z,56.20
2018-10-11T08:09:51.609Z,53.60
2018-10-11T08:10:51.828Z,52.80
2018-10-11T08:11:51.859Z,52.10
2018-10-11T08:12:51.582Z,52.50
2018-10-11T08:13:51.573Z,51.00
2018-10-11T08:14:51.551Z,48.00
2018-10-11T08:15:51.559Z,48.70
2018-10-11T08:16:51.685Z,46.50
2018-10-11T08:17:51.978Z,47.40
2018-10-11T08:18:51.599Z,45.60
2018-10-11T08:19:51.611Z,45.70
2018-10-11T08:20:51.486Z,43.00
2018-10-11T08:21:51.473Z,43.40
2018-10-11T08:22:51.468Z,43.40
2018-10-11T08:23:51.456Z,40.90
2018-10-11T08:24:51.581Z,41.90
2018-10-11T08:25:51.912Z,39.00
2018-10-11T08:26:51.499Z,41.20
2018-10-11T08:27:51.412Z,45.20
2018-10-11T08:28:51.397Z,43.30
2018-10-11T08:29:51.404Z,43.20
2018-10-11T08:30:51.375Z,45.00
2018-10-11T08:31:51.363Z,42.90
2018-10-11T08:32:51.412Z,46.20
2018-10-11T08:33:51.343Z,44.50
2018-10-11T08:34:51.350Z,43.40
2018-10-11T08:35:51.336Z,42.20
2018-10-11T08:36:51.310Z,45.20
2018-10-11T08:37:51.491Z,44.80
2018-10-11T08:38:51.286Z,43.70
2018-10-11T08:39:51.309Z,45.20
2018-10-11T08:40:51.268Z,44.20
2018-10-11T08:41:51.280Z,45.70
2018-10-11T08:42:51.290Z,45.10
2018-10-11T08:43:51.269Z,41.40
2018-10-11T08:44:51.232Z,42.50
2018-10-11T08:45:51.227Z,39.80
2018-10-11T08:46:51.209Z,42.40
2018-10-11T08:47:51.215Z,41.90
2018-10-11T08:48:51.177Z,44.60
2018-10-11T08:49:51.196Z,43.90
2018-10-11T08:50:51.260Z,43.40
2018-10-11T08:51:51.146Z,41.70
2018-10-11T08:52:51.152Z,44.00
2018-10-11T08:53:51.123Z,47.40
2018-10-11T08:54:51.139Z,44.00
2018-10-11T08:55:51.164Z,42.80
2018-10-11T08:56:51.090Z,41.90
2018-10-11T08:57:51.081Z,42.40
2018-10-11T08:58:51.067Z,47.90
2018-10-11T08:59:51.065Z,47.40
2018-10-11T09:00:51.052Z,44.80
2018-10-11T09:01:51.034Z,41.60
2018-10-11T09:02:51.024Z,44.80
2018-10-11T09:03:51.111Z,42.70
2018-10-11T09:04:51.019Z,42.70
2018-10-11T09:05:51.011Z,43.70
2018-10-11T09:06:50.980Z,41.10
2018-10-11T09:07:50.968Z,43.90
2018-10-11T09:08:50.957Z,45.70
2018-10-11T09:09:53.685Z,42.50
2018-10-11T09:10:51.001Z,43.60
2018-10-11T09:11:50.930Z,41.10
2018-10-11T09:12:50.913Z,42.80
2018-10-11T09:13:50.903Z,42.40
2018-10-11T09:14:50.893Z,44.10
2018-10-11T09:15:50.889Z,41.70
2018-10-11T09:16:50.876Z,43.10
2018-10-11T09:17:50.864Z,43.60
2018-10-11T09:18:50.847Z,43.40
2018-10-11T09:19:50.837Z,40.20
2018-10-11T09:20:50.838Z,42.10
2018-10-11T09:21:50.819Z,42.60
2018-10-11T09:22:50.810Z,41.90
2018-10-11T09:23:50.796Z,44.00
2018-10-11T09:24:50.783Z,43.00
2018-10-11T09:25:50.779Z,45.50
2018-10-11T09:26:50.759Z,44.00
2018-10-11T09:27:50.752Z,45.50
2018-10-11T09:28:50.756Z,41.70
2018-10-11T09:29:50.729Z,42.60
2018-10-11T09:30:50.724Z,40.70
2018-10-11T09:31:50.703Z,42.70
2018-10-11T09:32:50.693Z,44.00
2018-10-11T09:33:50.683Z,42.80
2018-10-11T09:34:50.674Z,44.60
2018-10-11T09:35:50.668Z,42.70
2018-10-11T09:36:50.646Z,40.30
2018-10-11T09:37:50.639Z,43.80
2018-10-11T09:38:50.625Z,42.50
2018-10-11T09:39:50.629Z,43.00
2018-10-11T09:40:50.615Z,43.00
2018-10-11T09:41:50.589Z,43.60
2018-10-11T09:42:50.579Z,43.40
2018-10-11T09:43:50.572Z,42.40
2018-10-11T09:44:50.569Z,42.90
2018-10-11T09:45:50.564Z,44.10
2018-10-11T09:46:50.535Z,42.60
2018-10-11T09:47:50.522Z,43.30
2018-10-11T09:48:50.641Z,40.70
2018-10-11T09:49:50.510Z,41.30
2018-10-11T09:50:50.513Z,40.20
2018-10-11T09:51:50.480Z,39.20
2018-10-11T09:52:50.467Z,40.80
2018-10-11T09:53:50.465Z,41.40
2018-10-11T09:54:50.480Z,40.90
2018-10-11T09:55:50.447Z,41.90
2018-10-11T09:56:50.426Z,41.00
2018-10-11T09:57:50.421Z,41.40
2018-10-11T09:58:50.412Z,39.50
2018-10-11T09:59:50.393Z,39.30
2018-10-11T10:00:50.380Z,37.90
2018-10-11T10:01:50.428Z,41.10
2018-10-11T10:02:50.363Z,40.50
2018-10-11T10:03:50.357Z,38.50
2018-10-11T10:04:50.332Z,41.70
2018-10-11T10:05:50.322Z,42.00
2018-10-11T10:06:50.320Z,38.40
2018-10-11T10:07:50.298Z,41.80
2018-10-11T10:08:50.290Z,39.10
2018-10-11T10:09:50.332Z,40.90
2018-10-11T10:10:50.276Z,40.60
2018-10-11T10:11:50.269Z,38.10
2018-10-11T10:12:50.268Z,36.70
2018-10-11T10:13:50.241Z,36.90
2018-10-11T10:14:50.230Z,37.80
2018-10-11T10:15:50.210Z,37.20
2018-10-11T10:16:50.227Z,37.60
2018-10-11T10:17:50.188Z,36.80
2018-10-11T10:18:50.180Z,35.90
2018-10-11T10:19:50.165Z,38.20
2018-10-11T10:20:50.155Z,39.40
2018-10-11T10:21:50.157Z,35.50
2018-10-11T10:22:50.142Z,36.80
2018-10-11T10:23:50.122Z,35.40
2018-10-11T10:24:50.111Z,35.80
2018-10-11T10:25:50.107Z,36.90
2018-10-11T10:26:50.178Z,35.30
2018-10-11T10:27:50.080Z,36.80
2018-10-11T10:28:50.069Z,33.30
2018-10-11T10:29:50.064Z,35.00
2018-10-11T10:30:50.044Z,35.80
2018-10-11T10:31:50.093Z,35.00
2018-10-11T10:32:50.025Z,35.90
2018-10-11T10:33:50.062Z,36.80
2018-10-11T10:34:50.000Z,35.30
2018-10-11T10:35:49.989Z,35.70
2018-10-11T10:36:49.986Z,34.30
2018-10-11T10:37:49.976Z,38.40
2018-10-11T10:38:49.960Z,39.20
2018-10-11T10:39:49.976Z,35.60
2018-10-11T10:40:49.940Z,36.50
2018-10-11T10:41:49.938Z,36.50
2018-10-11T10:42:49.910Z,36.80
2018-10-11T10:43:49.903Z,36.00
2018-10-11T10:44:49.895Z,35.60
2018-10-11T10:45:49.917Z,35.10
2018-10-11T10:46:49.879Z,35.90
2018-10-11T10:47:49.868Z,38.20
2018-10-11T10:48:49.892Z,35.20
2018-10-11T10:49:49.835Z,38.30
2018-10-11T10:50:49.840Z,34.70
2018-10-11T10:51:49.812Z,33.70
2018-10-11T10:52:49.812Z,35.60
2018-10-11T10:53:49.789Z,34.60
2018-10-11T10:54:49.786Z,34.80
2018-10-11T10:55:49.763Z,34.70
2018-10-11T10:56:49.756Z,33.80
2018-10-11T10:57:49.757Z,33.90
2018-10-11T10:58:49.733Z,34.00
2018-10-11T10:59:49.723Z,34.40
2018-10-11T11:00:49.709Z,33.60
2018-10-11T11:01:49.700Z,34.10
2018-10-11T11:02:49.697Z,33.70
2018-10-11T11:03:49.679Z,33.50
2018-10-11T11:04:49.669Z,34.10
2018-10-11T11:05:49.654Z,34.70
2018-10-11T11:06:49.645Z,34.40
2018-10-11T11:07:49.641Z,33.70
2018-10-11T11:08:49.622Z,34.20
2018-10-11T11:09:49.618Z,33.00
2018-10-11T11:10:49.604Z,33.90
2018-10-11T11:11:49.606Z,34.50
2018-10-11T11:12:49.599Z,33.50
2018-10-11T11:13:49.568Z,33.60
2018-10-11T11:14:49.555Z,32.90
2018-10-11T11:15:49.558Z,33.00
2018-10-11T11:16:49.543Z,33.50
2018-10-11T11:17:49.535Z,37.20
2018-10-11T11:18:49.561Z,31.90
2018-10-11T11:19:49.501Z,33.50
2018-10-11T11:20:49.493Z,32.30
2018-10-11T11:21:49.505Z,31.70
2018-10-11T11:22:49.483Z,31.50
2018-10-11T11:23:49.455Z,30.50
2018-10-11T11:24:49.444Z,29.10
2018-10-11T11:25:49.438Z,28.50
2018-10-11T11:26:49.429Z,29.70
2018-10-11T11:27:49.422Z,28.30
2018-10-11T11:28:49.398Z,29.30
2018-10-11T11:29:49.387Z,28.30
2018-10-11T11:30:49.375Z,28.20
2018-10-11T11:31:49.371Z,28.10
2018-10-11T11:32:49.378Z,28.30
2018-10-11T11:33:49.362Z,28.20
2018-10-11T11:34:49.333Z,28.20
2018-10-11T11:35:49.323Z,29.00
2018-10-11T11:36:49.312Z,29.30
2018-10-11T11:37:49.321Z,27.50
2018-10-11T11:38:49.293Z,27.00
2018-10-11T11:39:49.313Z,27.20
2018-10-11T11:40:49.265Z,28.50
2018-10-11T11:41:49.255Z,26.70
2018-10-11T11:42:49.268Z,26.90
2018-10-11T11:43:49.245Z,27.70
2018-10-11T11:44:49.231Z,28.30
2018-10-11T11:45:49.250Z,28.20
2018-10-11T11:46:49.198Z,27.60
2018-10-11T11:47:49.192Z,28.10
2018-10-11T11:48:49.198Z,28.00
2018-10-11T11:49:49.177Z,28.00
2018-10-11T11:50:49.171Z,27.60
2018-10-11T11:51:49.142Z,26.80
2018-10-11T11:52:49.135Z,28.30
2018-10-11T11:53:49.138Z,28.60
2018-10-11T11:54:49.113Z,28.00
2018-10-11T11:55:49.105Z,27.90
2018-10-11T11:56:49.110Z,27.90
2018-10-11T11:57:49.087Z,27.60
2018-10-11T11:58:49.089Z,28.00
2018-10-11T11:59:49.097Z,27.70
2018-10-11T12:00:49.047Z,28.40
2018-10-11T12:01:49.034Z,27.50
2018-10-11T12:02:49.110Z,27.10
2018-10-11T12:03:49.021Z,26.00
2018-10-11T12:04:49.000Z,27.60
2018-10-11T12:05:48.996Z,26.80
2018-10-11T12:06:48.987Z,26.80
2018-10-11T12:07:48.971Z,27.70
2018-10-11T12:08:48.968Z,28.20
2018-10-11T12:09:48.948Z,28.20
2018-10-11T12:10:48.998Z,27.30
2018-10-11T12:11:48.942Z,27.50
2018-10-11T12:12:48.917Z,26.90
2018-10-11T12:13:48.925Z,27.00
2018-10-11T12:14:48.890Z,26.50
2018-10-11T12:15:48.883Z,26.00
2018-10-11T12:16:48.871Z,26.40
2018-10-11T12:17:48.859Z,24.80
2018-10-11T12:18:48.857Z,24.50
2018-10-11T12:19:48.839Z,23.90
2018-10-11T12:20:48.830Z,24.30
2018-10-11T12:21:48.815Z,23.60
2018-10-11T12:22:48.802Z,22.50
2018-10-11T12:23:48.801Z,25.10
2018-10-11T12:24:48.820Z,24.20
2018-10-11T12:25:48.775Z,24.00
2018-10-11T12:26:48.757Z,23.20
2018-10-11T12:27:48.746Z,23.70
2018-10-11T12:28:48.790Z,23.00
2018-10-11T12:29:48.727Z,21.50
2018-10-11T12:30:48.730Z,23.10
2018-10-11T12:31:48.705Z,22.50
2018-10-11T12:32:48.692Z,22.90
2018-10-11T12:33:48.694Z,24.40
2018-10-11T12:34:48.686Z,23.40
2018-10-11T12:35:48.658Z,23.20
2018-10-11T12:36:48.645Z,22.80
2018-10-11T12:37:48.655Z,23.50
2018-10-11T12:38:48.726Z,23.10
2018-10-11T12:39:48.618Z,23.80
2018-10-11T12:40:48.604Z,23.40
2018-10-11T12:41:48.598Z,24.70
2018-10-11T12:42:48.583Z,22.90
2018-10-11T12:43:48.579Z,24.20
2018-10-11T12:44:48.558Z,23.90
2018-10-11T12:45:48.545Z,23.40
2018-10-11T12:46:48.538Z,22.60
2018-10-11T12:47:48.525Z,23.70
2018-10-11T12:48:48.534Z,22.60
2018-10-11T12:49:49.423Z,23.20
2018-10-11T12:50:48.497Z,23.30
2018-10-11T12:51:48.620Z,23.50
2018-10-11T12:52:48.476Z,22.70